Current Weather

Half Moon Bay

Half Moon Bay, California (KHAF)

Report from: Tuesday, February 27, 2024 1:35 AM PST
Current time: Tuesday, February 27, 2024 1:50 AM PST

Nearby weather – Weather history – Daily summaries
Weather forecast

Temperature10.0°C (50.0°F)
Wind chill8.2°C (46.7°F)
Dew point6.0°C (42.8°F)
Winds 7 kts (3.6 m/s, 8.1 mph) North (350°)
Visibility7 mi. (11.3 km)
Clouds Few clouds 2,100 ft. (640 m)
Altimeter30.02 in.Hg (1017 mB)
Relative humidity76 %
Density altitude-575 ft. (-175 m)
Remarks Fully automated report
Automated weather observing station with precipitation discriminator
Flight conditions Visual Meteorological Conditions
Raw dataKHAF 270935Z AUTO 35007KT 7SM FEW021 10/06 A3002 RMK AO2
An error has occurred. This application may no longer respond until reloaded. Reload 🗙